Weather at Carignan/Rivière L’Acadie Water Aerodrome

Public forecast

Using degrees Celsius for public forecast. Weather courtesy of forecast.io.

Closest aviation weather report (METAR) to Carignan/Rivière L’Acadie Water Aerodrome

Closest report is Montréal / Saint-Hubert Airport, 5.8 nm (10.7 km) WNW.

2024/05/26 22:00 (retrieved 28 minutes ago)

CYHU 262200Z AUTO VRB03KT 9SM FEW066 SCT080 25/10 A2993 RMK SLP138 DENSITY ALT 1300FT

Closest aviation forecast (TAF) to Carignan/Rivière L’Acadie Water Aerodrome

Closest forecast is Montréal / Saint-Hubert Airport, 5.8 nm (10.7 km) WNW.

2024/05/26 18:42 (retrieved 4 hours ago)

TAF CYHU 261740Z 2618/2718 21005KT P6SM FEW040 BECMG 2621/2623 06008KT FM270500 06008KT P6SM SCT080 BKN250 BECMG 2711/2713 15015G25KT FM271300 15015G25KT P6SM BKN040 BKN090 OVC200 FM271600 16018G28KT P6SM -SHRA BKN030 OVC120 RMK FCST BASED ON AUTO OBS NXT FCST BY 270000Z